Time;durP1;ratioP1;P1;durP2;ratioP2;P2;SDS_P1;SDS_P2;PMS_P1;PMS_P2;Temp;Humidity;BMP_temperature;BMP_pressure;BME280_temperature;BME280_humidity;BME280_pressure;Samples;Min_cycle;Max_cycle;Signal;HPM_P1;HPM_P2
2022/09/21 00:02:00;;;;;;;0.63;0.53;;;;;;;;;;5091529;28;20457;-79
2022/09/21 00:04:26;;;;;;;2.33;2.13;;;;;;;;;;5092780;28;21173;-79
2022/09/21 00:06:54;;;;;;;0.70;0.60;;;;;;;;;;5089265;28;20455;-78
2022/09/21 00:09:21;;;;;;;0.70;0.70;;;;;;;;;;5091293;28;20505;-79
2022/09/21 00:11:49;;;;;;;0.60;0.60;;;;;;;;;;5110921;28;20466;-79
2022/09/21 00:14:20;;;;;;;0.70;0.60;;;;;;;;;;5074528;28;20529;-78
2022/09/21 00:16:48;;;;;;;0.70;0.60;;;;;;;;;;5098109;28;20499;-78
2022/09/21 00:19:15;;;;;;;0.60;0.60;;;;;;;;;;5101873;28;20454;-78
2022/09/21 00:21:43;;;;;;;0.70;0.60;;;;;;;;;;5096193;28;20473;-79
2022/09/21 00:24:11;;;;;;;0.60;0.60;;;;;;;;;;5114952;28;20466;-80
2022/09/21 00:26:38;;;;;;;0.60;0.60;;;;;;;;;;5102624;28;20533;-79
2022/09/21 00:29:07;;;;;;;0.70;0.60;;;;;;;;;;5083791;28;20475;-78
2022/09/21 00:31:34;;;;;;;1.63;1.53;;;;;;;;;;5087794;28;20454;-79
2022/09/21 00:34:02;;;;;;;0.70;0.60;;;;;;;;;;5091366;28;20463;-79
2022/09/21 00:36:29;;;;;;;1.00;0.80;;;;;;;;;;5092148;28;20482;-79
2022/09/21 00:38:57;;;;;;;1.57;1.03;;;;;;;;;;5093064;28;20430;-79
2022/09/21 00:41:25;;;;;;;0.63;0.60;;;;;;;;;;5090953;28;20451;-79
2022/09/21 00:44:19;;;;;;;1.03;0.90;;;;;;;;;;5078463;28;20442;-79
2022/09/21 00:46:47;;;;;;;0.60;0.60;;;;;;;;;;5097470;28;20481;-79
2022/09/21 00:49:15;;;;;;;0.60;0.60;;;;;;;;;;5097447;28;20445;-79
2022/09/21 00:51:43;;;;;;;0.60;0.60;;;;;;;;;;5093862;28;20550;-79
2022/09/21 00:54:19;;;;;;;0.70;0.60;;;;;;;;;;5090015;28;20699;-80
2022/09/21 00:56:58;;;;;;;0.70;0.70;;;;;;;;;;5085346;28;20465;-78
2022/09/21 00:59:37;;;;;;;1.23;0.90;;;;;;;;;;5108073;28;20517;-79
2022/09/21 01:02:11;;;;;;;0.87;0.80;;;;;;;;;;5064994;28;20475;-79
2022/09/21 01:04:43;;;;;;;0.80;0.80;;;;;;;;;;5106146;28;20421;-79
2022/09/21 01:07:21;;;;;;;0.60;0.60;;;;;;;;;;5090163;28;20443;-79
2022/09/21 01:09:57;;;;;;;0.60;0.50;;;;;;;;;;5061533;28;20463;-79
2022/09/21 01:12:53;;;;;;;0.60;0.60;;;;;;;;;;5061876;28;20447;-78
2022/09/21 01:15:34;;;;;;;2.20;1.17;;;;;;;;;;5092603;28;20439;-79
2022/09/21 01:18:07;;;;;;;1.53;1.13;;;;;;;;;;5062521;28;20480;-78
2022/09/21 01:20:50;;;;;;;0.60;0.60;;;;;;;;;;5073367;28;20478;-78
2022/09/21 01:23:39;;;;;;;0.60;0.60;;;;;;;;;;5071635;28;20443;-79
2022/09/21 01:26:14;;;;;;;0.60;0.60;;;;;;;;;;5069526;28;20447;-79
2022/09/21 01:29:01;;;;;;;0.60;0.60;;;;;;;;;;5082189;28;20474;-79
2022/09/21 01:31:35;;;;;;;1.17;1.07;;;;;;;;;;5068933;28;20444;-79
2022/09/21 01:34:08;;;;;;;0.60;0.60;;;;;;;;;;5057769;28;20475;-77
2022/09/21 01:36:43;;;;;;;0.60;0.60;;;;;;;;;;5084676;28;20534;-79
2022/09/21 01:39:16;;;;;;;0.60;0.60;;;;;;;;;;5082709;28;20567;-79
2022/09/21 01:41:46;;;;;;;0.60;0.60;;;;;;;;;;5083305;28;20494;-79
2022/09/21 01:44:22;;;;;;;0.60;0.60;;;;;;;;;;5061564;28;20452;-79
2022/09/21 01:47:00;;;;;;;0.60;0.60;;;;;;;;;;5045778;28;20842;-81
2022/09/21 01:49:33;;;;;;;0.70;0.63;;;;;;;;;;5069067;28;20555;-80
2022/09/21 01:52:07;;;;;;;0.60;0.60;;;;;;;;;;5086888;28;20909;-77
2022/09/21 01:54:39;;;;;;;0.70;0.60;;;;;;;;;;5087108;28;20518;-78
2022/09/21 01:57:10;;;;;;;0.67;0.60;;;;;;;;;;5081991;28;20455;-78
2022/09/21 01:59:49;;;;;;;0.60;0.60;;;;;;;;;;5085267;28;20447;-78
2022/09/21 02:02:22;;;;;;;0.60;0.60;;;;;;;;;;5069419;28;20448;-77
2022/09/21 02:04:53;;;;;;;0.60;0.57;;;;;;;;;;5086694;28;20448;-78
2022/09/21 02:07:27;;;;;;;0.67;0.63;;;;;;;;;;5078432;28;20529;-78
2022/09/21 02:09:57;;;;;;;0.60;0.60;;;;;;;;;;5108123;28;20538;-79
2022/09/21 02:12:23;;;;;;;0.67;0.67;;;;;;;;;;5101586;28;20460;-80
2022/09/21 02:14:54;;;;;;;0.60;0.60;;;;;;;;;;5090632;28;20469;-78
2022/09/21 02:17:26;;;;;;;0.70;0.67;;;;;;;;;;5080033;28;20451;-79
2022/09/21 02:19:56;;;;;;;1.17;1.07;;;;;;;;;;5090717;28;20873;-77
2022/09/21 02:22:35;;;;;;;0.60;0.50;;;;;;;;;;5062885;28;20462;-78
2022/09/21 02:25:05;;;;;;;2.40;2.20;;;;;;;;;;5067828;28;20437;-79
2022/09/21 02:27:36;;;;;;;0.60;0.60;;;;;;;;;;5067559;28;20431;-78
2022/09/21 02:30:06;;;;;;;0.60;0.60;;;;;;;;;;5082663;28;20449;-77
2022/09/21 02:32:36;;;;;;;0.60;0.60;;;;;;;;;;5079524;28;20442;-77
2022/09/21 02:35:07;;;;;;;0.70;0.60;;;;;;;;;;5081340;28;20477;-78
2022/09/21 02:37:36;;;;;;;1.53;1.43;;;;;;;;;;5089977;28;20481;-77
2022/09/21 02:40:06;;;;;;;0.67;0.67;;;;;;;;;;5081408;28;20454;-80
2022/09/21 02:42:35;;;;;;;0.60;0.60;;;;;;;;;;5096608;28;20532;-80
2022/09/21 02:45:03;;;;;;;0.60;0.50;;;;;;;;;;5093787;28;20418;-80
2022/09/21 02:47:33;;;;;;;0.60;0.60;;;;;;;;;;5088225;28;20434;-78
2022/09/21 02:50:03;;;;;;;1.30;1.20;;;;;;;;;;5095013;28;20493;-80
2022/09/21 02:52:30;;;;;;;0.90;0.90;;;;;;;;;;5081520;28;20478;-78
2022/09/21 02:54:57;;;;;;;0.60;0.60;;;;;;;;;;5083983;28;20481;-78
2022/09/21 02:57:24;;;;;;;0.60;0.60;;;;;;;;;;5070701;28;20445;-79
2022/09/21 02:59:51;;;;;;;0.80;0.80;;;;;;;;;;5083604;28;20978;-79
2022/09/21 03:02:18;;;;;;;0.60;0.60;;;;;;;;;;5100884;28;20429;-79
2022/09/21 03:04:47;;;;;;;0.60;0.60;;;;;;;;;;5091774;28;20454;-80
2022/09/21 03:07:14;;;;;;;0.60;0.60;;;;;;;;;;5091038;28;20452;-78
2022/09/21 03:09:41;;;;;;;1.00;0.90;;;;;;;;;;5098303;28;20446;-78
2022/09/21 03:12:07;;;;;;;0.60;0.60;;;;;;;;;;5101457;28;20427;-79
2022/09/21 03:14:34;;;;;;;0.60;0.60;;;;;;;;;;5079019;28;20481;-79
2022/09/21 03:17:01;;;;;;;1.27;0.97;;;;;;;;;;5079985;28;20450;-79
2022/09/21 03:19:28;;;;;;;0.60;0.60;;;;;;;;;;5075289;28;20513;-78
2022/09/21 03:21:56;;;;;;;0.60;0.60;;;;;;;;;;5078311;28;20459;-79
2022/09/21 03:27:08;;;;;;;0.60;0.60;;;;;;;;;;5082195;28;20461;-79
2022/09/21 03:29:34;;;;;;;0.60;0.57;;;;;;;;;;5083746;28;20817;-79
2022/09/21 03:32:01;;;;;;;0.60;0.60;;;;;;;;;;5082533;28;20789;-79
2022/09/21 03:34:30;;;;;;;0.70;0.70;;;;;;;;;;5083584;28;20979;-80
2022/09/21 03:36:58;;;;;;;0.60;0.60;;;;;;;;;;5076457;28;21002;-79
2022/09/21 03:39:26;;;;;;;1.53;1.43;;;;;;;;;;5075733;28;20451;-77
2022/09/21 03:41:55;;;;;;;0.77;0.77;;;;;;;;;;5090348;28;20441;-78
2022/09/21 03:44:22;;;;;;;0.60;0.60;;;;;;;;;;5085446;28;20434;-79
2022/09/21 03:46:52;;;;;;;0.60;0.60;;;;;;;;;;5088526;28;20448;-79
2022/09/21 03:49:18;;;;;;;0.60;0.60;;;;;;;;;;5080845;28;20455;-79
2022/09/21 03:51:46;;;;;;;1.23;1.13;;;;;;;;;;5099131;28;20546;-79
2022/09/21 03:54:14;;;;;;;0.60;0.60;;;;;;;;;;5078839;28;21048;-79
2022/09/21 03:56:41;;;;;;;0.87;0.87;;;;;;;;;;5075416;28;20439;-78
2022/09/21 03:59:09;;;;;;;0.60;0.60;;;;;;;;;;5061490;28;20856;-78
2022/09/21 04:01:40;;;;;;;0.77;0.77;;;;;;;;;;5080593;28;20475;-80
2022/09/21 04:04:08;;;;;;;0.60;0.60;;;;;;;;;;5092732;28;20468;-79
2022/09/21 04:06:35;;;;;;;0.60;0.60;;;;;;;;;;5078147;28;20478;-80
2022/09/21 04:09:02;;;;;;;0.60;0.60;;;;;;;;;;5092406;28;20465;-79
2022/09/21 04:11:32;;;;;;;0.60;0.60;;;;;;;;;;5065185;28;20509;-79
2022/09/21 04:13:59;;;;;;;0.67;0.60;;;;;;;;;;5087700;28;20548;-79
2022/09/21 04:16:26;;;;;;;0.97;0.97;;;;;;;;;;5086692;28;20439;-78
2022/09/21 04:18:54;;;;;;;0.70;0.70;;;;;;;;;;5086119;28;21007;-80
2022/09/21 04:21:21;;;;;;;0.60;0.60;;;;;;;;;;5079774;28;20988;-78
2022/09/21 04:23:48;;;;;;;0.60;0.60;;;;;;;;;;5089179;28;21136;-80
2022/09/21 04:26:19;;;;;;;0.60;0.50;;;;;;;;;;5097427;28;20469;-79
2022/09/21 04:28:47;;;;;;;0.60;0.60;;;;;;;;;;5085589;28;20450;-78
2022/09/21 04:31:15;;;;;;;0.60;0.60;;;;;;;;;;5076665;28;20508;-79
2022/09/21 04:33:42;;;;;;;0.60;0.60;;;;;;;;;;5088803;28;20486;-81
2022/09/21 04:36:09;;;;;;;1.40;1.30;;;;;;;;;;5088672;28;20479;-79
2022/09/21 04:38:37;;;;;;;1.10;1.00;;;;;;;;;;5084491;28;20462;-79
2022/09/21 04:41:04;;;;;;;1.00;1.00;;;;;;;;;;5083733;28;20439;-78
2022/09/21 04:43:30;;;;;;;0.60;0.60;;;;;;;;;;5065414;28;20498;-80
2022/09/21 04:46:02;;;;;;;0.60;0.60;;;;;;;;;;5097653;28;20426;-79
2022/09/21 04:48:29;;;;;;;0.60;0.50;;;;;;;;;;5090331;28;20438;-79
2022/09/21 04:50:57;;;;;;;1.07;0.97;;;;;;;;;;5099883;28;20974;-79
2022/09/21 04:53:24;;;;;;;0.60;0.60;;;;;;;;;;5096868;28;20436;-80
2022/09/21 04:55:51;;;;;;;0.60;0.60;;;;;;;;;;5076279;28;20513;-80
2022/09/21 04:58:18;;;;;;;0.60;0.60;;;;;;;;;;5067445;28;20452;-80
2022/09/21 05:00:50;;;;;;;0.60;0.60;;;;;;;;;;5105987;28;20441;-80
2022/09/21 05:03:18;;;;;;;0.60;0.60;;;;;;;;;;5078813;28;20953;-79
2022/09/21 05:05:46;;;;;;;0.60;0.50;;;;;;;;;;5086057;28;20446;-80
2022/09/21 05:08:13;;;;;;;8.90;2.20;;;;;;;;;;5079895;28;20834;-79
2022/09/21 05:10:40;;;;;;;0.60;0.50;;;;;;;;;;5101586;28;20934;-79
2022/09/21 05:13:07;;;;;;;0.60;0.60;;;;;;;;;;5079744;28;20446;-80
2022/09/21 05:15:35;;;;;;;0.70;0.70;;;;;;;;;;5086203;28;20481;-80
2022/09/21 05:18:03;;;;;;;0.60;0.60;;;;;;;;;;5082751;28;20460;-79
2022/09/21 05:20:31;;;;;;;0.60;0.57;;;;;;;;;;5075470;28;20851;-80
2022/09/21 05:23:00;;;;;;;0.60;0.60;;;;;;;;;;5081810;28;20451;-80
2022/09/21 05:25:27;;;;;;;0.60;0.60;;;;;;;;;;5085183;28;20491;-80
2022/09/21 05:27:54;;;;;;;4.10;1.03;;;;;;;;;;5081841;28;20780;-81
2022/09/21 05:30:21;;;;;;;0.60;0.60;;;;;;;;;;5084647;28;20430;-79
2022/09/21 05:32:54;;;;;;;0.60;0.60;;;;;;;;;;5082969;28;20451;-79
2022/09/21 05:35:25;;;;;;;0.60;0.60;;;;;;;;;;5078478;28;20474;-78
2022/09/21 05:37:56;;;;;;;0.60;0.60;;;;;;;;;;5084201;28;20434;-78
2022/09/21 05:40:23;;;;;;;1.20;0.90;;;;;;;;;;5085571;28;20791;-79
2022/09/21 05:42:50;;;;;;;0.60;0.60;;;;;;;;;;5086681;28;20533;-78
2022/09/21 05:45:19;;;;;;;0.60;0.60;;;;;;;;;;5086025;28;20434;-78
2022/09/21 05:47:51;;;;;;;0.60;0.57;;;;;;;;;;5100583;28;20886;-82
2022/09/21 05:50:25;;;;;;;0.60;0.60;;;;;;;;;;5088412;28;20446;-82
2022/09/21 05:52:59;;;;;;;1.30;1.20;;;;;;;;;;5076154;28;20485;-81
2022/09/21 05:55:31;;;;;;;0.60;0.57;;;;;;;;;;5083785;28;20906;-81
2022/09/21 05:58:04;;;;;;;0.60;0.60;;;;;;;;;;5096879;28;21006;-80
2022/09/21 06:00:37;;;;;;;0.60;0.60;;;;;;;;;;5080588;28;20446;-79
2022/09/21 06:03:24;;;;;;;0.70;0.60;;;;;;;;;;5079262;28;20442;-79
2022/09/21 06:05:52;;;;;;;0.80;0.80;;;;;;;;;;5082056;28;20470;-82
2022/09/21 06:08:21;;;;;;;0.60;0.57;;;;;;;;;;5088083;28;20474;-80
2022/09/21 06:10:48;;;;;;;0.97;0.97;;;;;;;;;;5083560;28;20461;-78
2022/09/21 06:13:15;;;;;;;0.60;0.60;;;;;;;;;;5091950;28;20429;-78
2022/09/21 06:15:43;;;;;;;0.60;0.60;;;;;;;;;;5080070;28;20523;-80
2022/09/21 06:18:10;;;;;;;0.60;0.50;;;;;;;;;;5067786;28;20460;-81
2022/09/21 06:20:43;;;;;;;0.80;0.80;;;;;;;;;;5096276;28;20486;-82
2022/09/21 06:23:11;;;;;;;0.60;0.57;;;;;;;;;;5084660;28;20445;-81
2022/09/21 06:25:39;;;;;;;0.60;0.60;;;;;;;;;;5099261;28;20458;-80
2022/09/21 06:28:07;;;;;;;0.70;0.70;;;;;;;;;;5080392;28;20443;-81
2022/09/21 06:30:34;;;;;;;0.60;0.60;;;;;;;;;;5098240;28;20450;-80
2022/09/21 06:33:02;;;;;;;0.60;0.60;;;;;;;;;;5084880;28;20445;-79
2022/09/21 06:35:29;;;;;;;1.63;1.03;;;;;;;;;;5101976;28;20491;-80
2022/09/21 06:37:57;;;;;;;0.60;0.60;;;;;;;;;;5084676;28;20455;-79
2022/09/21 06:40:26;;;;;;;0.60;0.60;;;;;;;;;;5086443;28;20466;-80
2022/09/21 06:42:58;;;;;;;0.60;0.60;;;;;;;;;;5076508;28;20927;-79
2022/09/21 06:45:25;;;;;;;0.60;0.50;;;;;;;;;;5066914;28;20488;-81
2022/09/21 06:47:52;;;;;;;1.33;1.23;;;;;;;;;;5086374;28;20487;-79
2022/09/21 06:50:19;;;;;;;1.00;0.97;;;;;;;;;;5077980;28;20526;-81
2022/09/21 06:52:46;;;;;;;0.60;0.50;;;;;;;;;;5065282;28;20443;-82
2022/09/21 06:55:13;;;;;;;0.60;0.57;;;;;;;;;;5083258;28;20471;-81
2022/09/21 06:57:39;;;;;;;0.83;0.83;;;;;;;;;;5098680;28;20461;-81
2022/09/21 07:00:10;;;;;;;0.70;0.70;;;;;;;;;;5086231;28;20440;-81
2022/09/21 07:02:37;;;;;;;1.27;1.17;;;;;;;;;;5100262;28;20465;-80
2022/09/21 07:05:05;;;;;;;0.60;0.60;;;;;;;;;;5098120;28;20539;-78
2022/09/21 07:07:32;;;;;;;0.60;0.60;;;;;;;;;;5074342;28;20486;-80
2022/09/21 07:09:59;;;;;;;0.67;0.67;;;;;;;;;;5076970;28;20557;-79
2022/09/21 07:12:42;;;;;;;0.60;0.50;;;;;;;;;;5077877;28;20528;-77
2022/09/21 07:15:10;;;;;;;0.90;0.90;;;;;;;;;;5085461;28;20929;-80
2022/09/21 07:17:38;;;;;;;0.60;0.60;;;;;;;;;;5067817;28;20464;-80
2022/09/21 07:20:06;;;;;;;1.27;0.93;;;;;;;;;;5080521;28;20978;-79
2022/09/21 07:22:34;;;;;;;0.60;0.60;;;;;;;;;;5079226;28;20989;-80
2022/09/21 07:25:01;;;;;;;0.60;0.60;;;;;;;;;;5097460;28;20450;-79
2022/09/21 07:27:28;;;;;;;0.80;0.80;;;;;;;;;;5082889;28;20477;-79
2022/09/21 07:29:57;;;;;;;0.60;0.60;;;;;;;;;;5078108;28;20965;-79
2022/09/21 07:32:26;;;;;;;0.60;0.60;;;;;;;;;;5061981;28;20544;-80
2022/09/21 07:34:55;;;;;;;0.60;0.50;;;;;;;;;;5075439;28;20456;-80
2022/09/21 07:37:23;;;;;;;0.70;0.70;;;;;;;;;;5083771;28;20883;-79
2022/09/21 07:39:50;;;;;;;0.70;0.70;;;;;;;;;;5067889;28;20540;-78
2022/09/21 07:42:19;;;;;;;0.60;0.60;;;;;;;;;;5069932;28;20548;-78
2022/09/21 07:44:46;;;;;;;0.60;0.60;;;;;;;;;;5083251;28;20435;-79
2022/09/21 07:47:12;;;;;;;1.00;0.90;;;;;;;;;;5085835;28;20432;-79
2022/09/21 07:49:41;;;;;;;0.83;0.77;;;;;;;;;;5103026;28;20434;-80
2022/09/21 07:52:08;;;;;;;0.70;0.60;;;;;;;;;;5083810;28;20478;-78
2022/09/21 07:54:39;;;;;;;1.57;1.47;;;;;;;;;;5084939;28;20542;-80
2022/09/21 07:59:56;;;;;;;1.07;0.97;;;;;;;;;;5063285;28;20483;-78
2022/09/21 08:02:23;;;;;;;0.70;0.60;;;;;;;;;;5080539;28;20461;-78
2022/09/21 08:04:52;;;;;;;0.60;0.60;;;;;;;;;;5078499;28;20427;-78
2022/09/21 08:07:19;;;;;;;0.70;0.70;;;;;;;;;;5083875;28;20821;-80
2022/09/21 08:09:48;;;;;;;0.70;0.70;;;;;;;;;;5071183;28;20503;-79
2022/09/21 08:12:17;;;;;;;0.60;0.60;;;;;;;;;;5081176;28;20471;-80
2022/09/21 08:14:44;;;;;;;1.00;1.00;;;;;;;;;;5088606;28;20441;-79
2022/09/21 08:17:13;;;;;;;0.90;0.90;;;;;;;;;;5074846;28;20466;-79
2022/09/21 08:19:40;;;;;;;2.23;2.13;;;;;;;;;;5086797;28;20449;-80
2022/09/21 08:22:18;;;;;;;0.83;0.83;;;;;;;;;;5087008;28;20484;-80
2022/09/21 08:24:47;;;;;;;0.80;0.80;;;;;;;;;;5083255;28;20951;-78
2022/09/21 08:27:15;;;;;;;2.20;2.00;;;;;;;;;;5057665;28;20439;-78
2022/09/21 08:29:42;;;;;;;0.60;0.57;;;;;;;;;;5080623;28;20451;-78
2022/09/21 08:32:09;;;;;;;0.60;0.60;;;;;;;;;;5081512;28;20899;-80
2022/09/21 08:34:56;;;;;;;0.70;0.70;;;;;;;;;;5083745;28;20546;-79
2022/09/21 08:37:24;;;;;;;0.60;0.60;;;;;;;;;;5089276;28;20479;-79
2022/09/21 08:39:53;;;;;;;0.70;0.70;;;;;;;;;;5081212;28;20792;-78
2022/09/21 08:42:35;;;;;;;1.37;1.27;;;;;;;;;;5087863;28;20531;-80
2022/09/21 08:45:05;;;;;;;0.60;0.60;;;;;;;;;;5104426;28;20526;-79
2022/09/21 08:47:35;;;;;;;0.70;0.60;;;;;;;;;;5072680;28;20441;-79
2022/09/21 08:50:04;;;;;;;0.60;0.60;;;;;;;;;;5086077;28;20466;-80
2022/09/21 08:52:32;;;;;;;0.80;0.70;;;;;;;;;;5078027;28;20447;-79
2022/09/21 08:55:02;;;;;;;0.70;0.70;;;;;;;;;;5059565;28;20435;-79
2022/09/21 08:57:29;;;;;;;0.70;0.70;;;;;;;;;;5081761;28;20479;-79
2022/09/21 08:59:58;;;;;;;0.70;0.70;;;;;;;;;;5079014;28;20541;-79
2022/09/21 09:02:32;;;;;;;0.70;0.70;;;;;;;;;;5094358;28;20440;-80
2022/09/21 09:05:02;;;;;;;0.70;0.70;;;;;;;;;;5100108;28;20901;-77
2022/09/21 09:07:43;;;;;;;1.00;0.80;;;;;;;;;;5092372;28;20565;-78
2022/09/21 09:10:17;;;;;;;0.80;0.80;;;;;;;;;;5085619;28;20456;-77
2022/09/21 09:12:49;;;;;;;1.40;1.30;;;;;;;;;;5088766;28;20486;-78
2022/09/21 09:15:24;;;;;;;0.80;0.80;;;;;;;;;;5080185;28;20511;-78
2022/09/21 09:17:53;;;;;;;0.80;0.80;;;;;;;;;;5092434;28;20447;-78
2022/09/21 09:20:24;;;;;;;1.23;1.13;;;;;;;;;;5089230;28;20511;-77
2022/09/21 09:22:55;;;;;;;1.43;1.33;;;;;;;;;;5059064;28;20447;-80
2022/09/21 09:25:23;;;;;;;0.70;0.70;;;;;;;;;;5053723;28;20921;-80
2022/09/21 09:27:54;;;;;;;0.70;0.60;;;;;;;;;;5077672;28;20458;-80
2022/09/21 09:30:24;;;;;;;0.70;0.70;;;;;;;;;;5079053;28;20547;-80
2022/09/21 09:32:53;;;;;;;0.70;0.70;;;;;;;;;;5095668;28;20438;-78
2022/09/21 09:35:23;;;;;;;0.73;0.70;;;;;;;;;;5063908;28;20452;-78
2022/09/21 09:37:51;;;;;;;5.20;1.00;;;;;;;;;;5083318;28;20933;-76
2022/09/21 09:40:33;;;;;;;0.70;0.60;;;;;;;;;;5067294;28;20451;-78
2022/09/21 09:43:04;;;;;;;0.70;0.60;;;;;;;;;;5063387;28;20488;-78
2022/09/21 09:45:40;;;;;;;0.73;0.60;;;;;;;;;;5081034;28;20452;-77
2022/09/21 09:48:14;;;;;;;0.80;0.70;;;;;;;;;;5069744;28;20451;-77
2022/09/21 09:50:45;;;;;;;0.80;0.80;;;;;;;;;;5042213;28;20516;-80
2022/09/21 09:53:13;;;;;;;0.70;0.60;;;;;;;;;;5078929;28;20582;-79
2022/09/21 09:55:42;;;;;;;0.80;0.70;;;;;;;;;;5072807;28;20434;-78
2022/09/21 09:58:15;;;;;;;0.80;0.70;;;;;;;;;;5095545;28;20523;-79
2022/09/21 10:00:42;;;;;;;1.00;0.80;;;;;;;;;;5092979;28;20474;-77
2022/09/21 10:03:15;;;;;;;0.80;0.70;;;;;;;;;;5098924;28;20453;-80
2022/09/21 10:05:42;;;;;;;0.70;0.60;;;;;;;;;;5086513;28;20450;-79
2022/09/21 10:08:26;;;;;;;2.30;0.93;;;;;;;;;;5086132;28;20446;-78
2022/09/21 10:10:53;;;;;;;1.07;0.97;;;;;;;;;;5108225;28;20430;-77
2022/09/21 10:13:25;;;;;;;0.97;0.87;;;;;;;;;;5095735;28;20439;-80
2022/09/21 10:15:54;;;;;;;0.87;0.87;;;;;;;;;;5090206;28;20615;-79
2022/09/21 10:18:23;;;;;;;1.20;0.87;;;;;;;;;;5098356;28;20450;-80
2022/09/21 10:20:53;;;;;;;0.70;0.60;;;;;;;;;;5080539;28;20500;-80
2022/09/21 10:23:20;;;;;;;0.90;0.70;;;;;;;;;;5090680;28;20446;-78
2022/09/21 10:25:52;;;;;;;1.17;1.07;;;;;;;;;;5091472;28;20449;-77
2022/09/21 10:28:21;;;;;;;2.10;2.00;;;;;;;;;;5091319;28;20453;-79
2022/09/21 10:31:06;;;;;;;1.00;0.80;;;;;;;;;;5080781;28;20446;-79
2022/09/21 10:33:34;;;;;;;2.60;1.30;;;;;;;;;;5103901;28;20480;-78
2022/09/21 10:36:00;;;;;;;0.90;0.73;;;;;;;;;;5073858;28;20587;-79
2022/09/21 10:38:27;;;;;;;0.70;0.50;;;;;;;;;;5083135;28;20418;-79
2022/09/21 10:40:54;;;;;;;1.03;0.93;;;;;;;;;;5084340;28;20436;-78
2022/09/21 10:43:23;;;;;;;0.80;0.70;;;;;;;;;;5100511;28;20542;-78
2022/09/21 10:45:55;;;;;;;0.90;0.77;;;;;;;;;;5078667;28;20455;-77
2022/09/21 10:48:24;;;;;;;0.87;0.60;;;;;;;;;;5086855;28;21130;-78
2022/09/21 10:50:53;;;;;;;0.70;0.50;;;;;;;;;;5081189;28;20963;-77
2022/09/21 10:53:23;;;;;;;0.70;0.50;;;;;;;;;;5084326;28;20450;-76
2022/09/21 10:55:54;;;;;;;0.70;0.50;;;;;;;;;;5081102;28;20471;-75
2022/09/21 10:59:01;;;;;;;1.67;0.97;;;;;;;;;;5100747;28;20431;-76
2022/09/21 11:01:30;;;;;;;0.90;0.80;;;;;;;;;;5079995;28;20467;-77
2022/09/21 11:03:59;;;;;;;0.70;0.60;;;;;;;;;;5083209;28;20981;-76
2022/09/21 11:06:30;;;;;;;0.80;0.80;;;;;;;;;;5077467;28;20509;-76
2022/09/21 11:08:59;;;;;;;0.70;0.50;;;;;;;;;;5076638;28;20455;-79
2022/09/21 11:11:36;;;;;;;1.33;1.23;;;;;;;;;;5076204;28;20541;-77
2022/09/21 11:14:06;;;;;;;0.70;0.50;;;;;;;;;;5082632;28;20473;-77
2022/09/21 11:16:38;;;;;;;0.70;0.50;;;;;;;;;;5090163;28;20827;-78
2022/09/21 11:19:10;;;;;;;0.70;0.60;;;;;;;;;;5108398;28;20446;-78
2022/09/21 11:21:40;;;;;;;0.70;0.60;;;;;;;;;;5056306;28;20462;-78
2022/09/21 11:24:12;;;;;;;0.70;0.60;;;;;;;;;;5076763;28;20440;-79
2022/09/21 11:26:43;;;;;;;2.70;1.00;;;;;;;;;;5070448;28;20440;-77
2022/09/21 11:29:12;;;;;;;0.80;0.67;;;;;;;;;;5083672;28;20519;-78
2022/09/21 11:32:03;;;;;;;0.70;0.60;;;;;;;;;;5081018;28;20843;-76
2022/09/21 11:34:40;;;;;;;0.70;0.60;;;;;;;;;;5086695;28;20891;-76
2022/09/21 11:37:12;;;;;;;0.80;0.70;;;;;;;;;;5074639;28;20493;-76
2022/09/21 11:39:46;;;;;;;0.70;0.60;;;;;;;;;;5072597;28;20457;-77
2022/09/21 11:42:17;;;;;;;0.80;0.70;;;;;;;;;;5071692;28;20434;-76
2022/09/21 11:44:51;;;;;;;0.70;0.60;;;;;;;;;;5105456;28;20471;-75
2022/09/21 11:47:32;;;;;;;0.70;0.60;;;;;;;;;;5086229;28;20528;-75
2022/09/21 11:50:23;;;;;;;0.90;0.90;;;;;;;;;;5069410;28;20433;-77
2022/09/21 11:53:00;;;;;;;0.70;0.60;;;;;;;;;;5059445;28;20805;-75
2022/09/21 11:55:37;;;;;;;0.80;0.80;;;;;;;;;;5082539;28;20438;-77
2022/09/21 11:58:08;;;;;;;0.73;0.70;;;;;;;;;;5077039;28;20966;-78
2022/09/21 12:00:41;;;;;;;0.70;0.60;;;;;;;;;;5102579;28;20516;-78
2022/09/21 12:03:27;;;;;;;0.70;0.60;;;;;;;;;;5085625;28;20498;-78
2022/09/21 12:06:02;;;;;;;0.70;0.60;;;;;;;;;;5058211;28;20962;-78
2022/09/21 12:08:41;;;;;;;0.80;0.70;;;;;;;;;;5081980;28;20439;-78
2022/09/21 12:11:12;;;;;;;0.90;0.80;;;;;;;;;;5091677;28;20811;-78
2022/09/21 12:13:42;;;;;;;0.80;0.70;;;;;;;;;;5083064;28;21043;-77
2022/09/21 12:16:10;;;;;;;0.70;0.60;;;;;;;;;;5080771;28;20454;-77
2022/09/21 12:18:40;;;;;;;0.70;0.60;;;;;;;;;;5083170;28;20440;-78
2022/09/21 12:21:16;;;;;;;0.73;0.67;;;;;;;;;;5068567;28;20461;-78
2022/09/21 12:23:45;;;;;;;2.30;1.27;;;;;;;;;;5066353;28;20985;-79
2022/09/21 12:26:14;;;;;;;0.70;0.70;;;;;;;;;;5089874;28;20434;-78
2022/09/21 12:28:43;;;;;;;0.70;0.60;;;;;;;;;;5057042;28;20436;-78
2022/09/21 12:31:14;;;;;;;1.23;1.13;;;;;;;;;;5087287;28;20931;-78
2022/09/21 12:33:47;;;;;;;0.70;0.70;;;;;;;;;;5104297;28;20466;-78
2022/09/21 12:36:17;;;;;;;0.70;0.60;;;;;;;;;;5091483;28;20442;-79
2022/09/21 12:38:47;;;;;;;0.73;0.60;;;;;;;;;;5064026;28;20430;-79
2022/09/21 12:41:17;;;;;;;0.70;0.60;;;;;;;;;;5081669;28;20442;-78
2022/09/21 12:43:48;;;;;;;0.80;0.70;;;;;;;;;;5087917;28;20535;-79
2022/09/21 12:46:18;;;;;;;1.37;0.90;;;;;;;;;;5089955;28;20409;-79
2022/09/21 12:48:46;;;;;;;0.80;0.70;;;;;;;;;;5060153;28;20473;-79
2022/09/21 12:51:17;;;;;;;0.80;0.80;;;;;;;;;;5086784;28;20761;-79
2022/09/21 12:53:47;;;;;;;0.80;0.70;;;;;;;;;;5114165;28;20412;-79
2022/09/21 12:56:21;;;;;;;0.80;0.80;;;;;;;;;;5110879;28;20782;-77
2022/09/21 12:59:07;;;;;;;1.00;0.90;;;;;;;;;;5072794;28;20439;-78
2022/09/21 13:01:40;;;;;;;0.77;0.67;;;;;;;;;;5096458;28;20895;-76
2022/09/21 13:04:17;;;;;;;0.80;0.70;;;;;;;;;;5084650;28;20940;-78
2022/09/21 13:07:06;;;;;;;0.90;0.90;;;;;;;;;;5087877;28;20475;-79
2022/09/21 13:09:37;;;;;;;0.80;0.60;;;;;;;;;;5085298;28;20462;-79
2022/09/21 13:12:07;;;;;;;0.80;0.70;;;;;;;;;;5076965;28;20418;-76
2022/09/21 13:14:35;;;;;;;0.80;0.80;;;;;;;;;;5082813;28;20798;-81
2022/09/21 13:17:03;;;;;;;0.83;0.73;;;;;;;;;;5086364;28;20465;-81
2022/09/21 13:19:30;;;;;;;0.70;0.60;;;;;;;;;;5071732;28;20537;-80
2022/09/21 13:22:13;;;;;;;0.80;0.70;;;;;;;;;;5074444;28;20537;-77
2022/09/21 13:24:44;;;;;;;0.80;0.70;;;;;;;;;;5084270;28;20448;-77
2022/09/21 13:27:12;;;;;;;0.90;0.90;;;;;;;;;;5088904;28;20462;-82
2022/09/21 13:29:40;;;;;;;0.80;0.70;;;;;;;;;;5079138;28;20842;-79
2022/09/21 13:32:21;;;;;;;0.80;0.60;;;;;;;;;;5078028;28;20427;-77
2022/09/21 13:34:49;;;;;;;1.73;0.90;;;;;;;;;;5082446;28;20458;-78
2022/09/21 13:37:24;;;;;;;0.70;0.60;;;;;;;;;;5086742;28;20977;-79
2022/09/21 13:40:17;;;;;;;0.80;0.60;;;;;;;;;;5089063;28;20492;-81
2022/09/21 13:42:46;;;;;;;0.80;0.70;;;;;;;;;;5089724;28;20382;-78
2022/09/21 13:45:28;;;;;;;0.70;0.70;;;;;;;;;;5060208;28;20818;-81
2022/09/21 13:47:59;;;;;;;0.80;0.80;;;;;;;;;;5101277;28;20466;-82
2022/09/21 13:50:28;;;;;;;0.70;0.60;;;;;;;;;;5097901;28;20483;-76
2022/09/21 13:52:58;;;;;;;0.77;0.67;;;;;;;;;;5082159;28;20449;-78
2022/09/21 13:55:32;;;;;;;0.70;0.60;;;;;;;;;;5074772;28;20530;-79
2022/09/21 13:58:03;;;;;;;0.70;0.70;;;;;;;;;;5065714;28;20510;-78
2022/09/21 14:00:33;;;;;;;0.70;0.60;;;;;;;;;;5079030;28;20453;-77
2022/09/21 14:03:15;;;;;;;0.70;0.60;;;;;;;;;;5082707;28;20433;-78
2022/09/21 14:05:44;;;;;;;0.70;0.60;;;;;;;;;;5086769;28;20512;-78
2022/09/21 14:08:21;;;;;;;0.70;0.60;;;;;;;;;;5081178;28;20430;-77
2022/09/21 14:10:52;;;;;;;0.70;0.60;;;;;;;;;;5100249;28;20429;-78
2022/09/21 14:13:25;;;;;;;0.70;0.60;;;;;;;;;;5066771;28;21046;-75
2022/09/21 14:15:52;;;;;;;0.80;0.70;;;;;;;;;;5101889;28;20458;-76
2022/09/21 14:18:32;;;;;;;0.70;0.60;;;;;;;;;;5078254;28;20470;-77
2022/09/21 14:21:18;;;;;;;0.70;0.70;;;;;;;;;;5087494;28;20498;-76
2022/09/21 14:24:04;;;;;;;0.80;0.70;;;;;;;;;;5085397;28;20431;-76
2022/09/21 14:26:33;;;;;;;0.70;0.60;;;;;;;;;;5085383;28;20454;-78
2022/09/21 14:29:05;;;;;;;0.70;0.70;;;;;;;;;;5083468;28;20458;-76
2022/09/21 14:31:35;;;;;;;0.70;0.60;;;;;;;;;;5082165;28;20445;-78
2022/09/21 14:34:07;;;;;;;0.80;0.70;;;;;;;;;;5079736;28;20528;-75
2022/09/21 14:36:40;;;;;;;0.90;0.80;;;;;;;;;;5081322;28;20477;-76
2022/09/21 14:39:15;;;;;;;0.73;0.70;;;;;;;;;;5080235;28;20434;-75
2022/09/21 14:41:44;;;;;;;0.80;0.60;;;;;;;;;;5074657;28;20886;-76
2022/09/21 14:44:17;;;;;;;0.80;0.70;;;;;;;;;;5080232;28;20412;-75
2022/09/21 14:47:17;;;;;;;0.80;0.80;;;;;;;;;;5085239;28;20396;-75
2022/09/21 14:49:52;;;;;;;0.80;0.73;;;;;;;;;;4959717;28;20531;-74
2022/09/21 14:52:26;;;;;;;0.80;0.80;;;;;;;;;;4960591;28;20474;-74
2022/09/21 14:55:03;;;;;;;0.90;0.90;;;;;;;;;;5019050;28;20441;-74
2022/09/21 14:57:39;;;;;;;0.70;0.70;;;;;;;;;;5062697;28;20647;-75
2022/09/21 15:00:13;;;;;;;1.10;0.93;;;;;;;;;;5067546;28;20445;-76
2022/09/21 15:02:43;;;;;;;0.80;0.80;;;;;;;;;;5080059;28;20449;-77
2022/09/21 15:05:17;;;;;;;0.80;0.70;;;;;;;;;;5064910;28;20447;-76
2022/09/21 15:13:45;;;;;;;0.70;0.70;;;;;;;;;;5071928;28;20790;-75
2022/09/21 15:16:33;;;;;;;0.80;0.70;;;;;;;;;;5040694;28;21084;-75
2022/09/21 15:19:09;;;;;;;0.80;0.70;;;;;;;;;;5080894;28;20477;-75